Monticello, Missouri
Current Conditions -  °F | °C
As of 4:55 AM on Friday 31 Oct 2014 (Local Time) from KEOK Reporting Station
Overcast Overcast  
Wind Chill:   Ceiling: 4000
Heat Index:   Visibility: 10mi
Dew Point: -2°   Wind: 17mph
Humidity: 53%   Direction: 340°NNW
Pressure: 30.21"   Gusts: 26mph
Location:  40.12°N, 91.71°W
Report Text: KEOK 310955Z AUTO 34015G23KT 10SM OVC040 07/M02 A3021 RMK AO2
Loading
Personal Weather Stations






























Interactive Weather Map
Tropical Storm Tracking
New forecast layout! Learn more

10-Day Weather Forecast

Advertisements
Track Severe Weather on mobile